Time;durP1;ratioP1;P1;durP2;ratioP2;P2;SDS_P1;SDS_P2;PMS_P1;PMS_P2;Temp;Humidity;BMP_temperature;BMP_pressure;BME280_temperature;BME280_humidity;BME280_pressure;Samples;Min_cycle;Max_cycle;Signal;HPM_P1;HPM_P2
2022/07/10 00:00:21;;;;;;;4.17;1.23;;;13.70;99.90;13.00;100142;;;;596706;240;24098;-81
2022/07/10 00:02:45;;;;;;;2.67;1.37;;;13.70;99.90;13.00;100151;;;;587198;241;24031;-79
2022/07/10 00:05:13;;;;;;;6.57;1.40;;;13.60;99.90;12.90;100142;;;;596994;239;24052;-80
2022/07/10 00:07:41;;;;;;;3.80;1.50;;;13.60;99.90;12.90;100147;;;;591707;240;35100;-81
2022/07/10 00:10:09;;;;;;;1.10;0.90;;;13.50;99.90;12.80;100136;;;;596890;239;24106;-79
2022/07/10 00:12:37;;;;;;;3.37;1.60;;;13.30;99.90;12.70;100142;;;;596848;239;24140;-79
2022/07/10 00:15:06;;;;;;;2.27;0.93;;;13.30;99.90;12.60;100144;;;;587067;241;24060;-80
2022/07/10 00:17:36;;;;;;;6.40;1.30;;;13.20;99.90;12.50;100139;;;;596790;240;24072;-79
2022/07/10 00:20:03;;;;;;;3.03;0.90;;;13.20;99.90;12.50;100139;;;;587591;241;24049;-79
2022/07/10 00:22:31;;;;;;;2.03;1.03;;;13.10;99.90;12.40;100140;;;;586756;241;24082;-80
2022/07/10 00:24:59;;;;;;;1.57;1.10;;;13.00;99.90;12.40;100143;;;;596541;239;24088;-82
2022/07/10 00:27:27;;;;;;;3.33;1.60;;;13.00;99.90;12.30;100139;;;;587600;239;24095;-78
2022/07/10 00:29:54;;;;;;;3.20;1.17;;;12.90;99.90;12.30;100136;;;;588697;241;24054;-80
2022/07/10 00:32:22;;;;;;;2.03;1.00;;;12.90;99.90;12.30;100134;;;;588564;241;24074;-79
2022/07/10 00:34:50;;;;;;;6.67;1.43;;;12.90;99.90;12.30;100123;;;;597775;239;24070;-79
2022/07/10 00:37:20;;;;;;;1.57;0.80;;;12.90;99.90;12.30;100128;;;;597658;238;24010;-79
2022/07/10 00:39:50;;;;;;;2.40;1.60;;;12.90;99.90;12.30;100109;;;;587972;241;24034;-80
2022/07/10 00:42:15;;;;;;;5.00;1.20;;;12.90;99.90;12.40;100112;;;;587896;241;24041;-80
2022/07/10 00:44:43;;;;;;;5.87;1.13;;;13.00;99.90;12.40;100111;;;;587999;241;24092;-81
2022/07/10 00:47:13;;;;;;;5.30;1.30;;;13.00;99.90;12.40;100095;;;;596973;240;24064;-80
2022/07/10 00:49:39;;;;;;;3.10;1.13;;;13.10;99.90;12.50;100099;;;;587393;241;24058;-80
2022/07/10 00:52:09;;;;;;;2.80;1.13;;;13.10;99.90;12.50;100096;;;;596973;239;24054;-80
2022/07/10 00:54:37;;;;;;;2.23;0.93;;;13.10;99.90;12.60;100092;;;;587741;237;24037;-81
2022/07/10 00:57:08;;;;;;;4.27;1.27;;;13.20;99.90;12.60;100092;;;;587696;241;24033;-80
2022/07/10 00:59:36;;;;;;;5.37;1.50;;;13.20;99.90;12.60;100095;;;;587863;241;24029;-79
2022/07/10 01:02:03;;;;;;;2.30;0.97;;;13.20;99.90;12.70;100089;;;;587332;241;25121;-80
2022/07/10 01:04:31;;;;;;;1.97;1.50;;;13.30;99.90;12.70;100087;;;;587769;241;24026;-81
2022/07/10 01:06:59;;;;;;;2.57;0.80;;;13.30;99.90;12.80;100087;;;;597110;239;24073;-78
2022/07/10 01:09:29;;;;;;;0.90;0.80;;;13.40;99.90;12.80;100091;;;;587830;241;24035;-81
2022/07/10 01:11:55;;;;;;;2.83;1.20;;;13.40;99.90;12.80;100083;;;;597226;239;24074;-80
2022/07/10 01:14:23;;;;;;;6.77;1.33;;;13.50;99.90;12.90;100087;;;;597575;240;24063;-81
2022/07/10 01:16:51;;;;;;;4.13;1.47;;;13.50;99.90;12.90;100087;;;;587678;241;24018;-82
2022/07/10 01:19:19;;;;;;;3.60;1.03;;;13.50;99.90;12.90;100083;;;;587346;241;24036;-82
2022/07/10 01:21:47;;;;;;;3.17;1.30;;;13.50;99.90;12.90;100088;;;;588055;241;24079;-81
2022/07/10 01:24:15;;;;;;;7.07;1.60;;;13.50;99.90;12.90;100078;;;;596875;239;24077;-79
2022/07/10 01:26:43;;;;;;;2.87;1.50;;;13.60;99.90;12.90;100078;;;;597055;240;24028;-83
2022/07/10 01:29:14;;;;;;;3.07;1.37;;;13.60;99.90;13.00;100079;;;;587907;241;24129;-80
2022/07/10 01:31:42;;;;;;;1.73;1.40;;;13.60;99.90;13.00;100081;;;;587928;241;24043;-79
2022/07/10 01:34:08;;;;;;;5.73;1.40;;;13.60;99.90;13.00;100069;;;;587962;241;24017;-80
2022/07/10 01:36:39;;;;;;;4.93;1.20;;;13.60;99.90;13.00;100077;;;;581788;241;24034;-80
2022/07/10 01:39:07;;;;;;;3.47;1.03;;;13.60;99.90;13.00;100066;;;;587788;239;24080;-80
2022/07/10 01:41:32;;;;;;;2.23;1.27;;;13.60;99.90;13.00;100069;;;;589314;241;24131;-81
2022/07/10 01:44:00;;;;;;;4.20;1.30;;;13.60;99.90;13.00;100077;;;;588881;241;24082;-80
2022/07/10 01:46:28;;;;;;;9.37;1.63;;;13.60;99.90;13.00;100070;;;;588947;241;24078;-80
2022/07/10 01:48:56;;;;;;;2.17;0.93;;;13.60;99.90;12.90;100067;;;;588339;241;24058;-80
2022/07/10 01:51:24;;;;;;;3.17;1.30;;;13.60;99.90;12.90;100060;;;;588135;241;24055;-80
2022/07/10 01:53:52;;;;;;;1.47;1.30;;;13.60;99.90;12.90;100049;;;;588168;241;24009;-80
2022/07/10 01:56:20;;;;;;;3.70;1.20;;;13.50;99.90;12.90;100055;;;;587969;241;24033;-80
2022/07/10 01:58:48;;;;;;;10.03;1.70;;;13.50;99.90;12.90;100055;;;;587572;241;25152;-81
2022/07/10 02:01:16;;;;;;;4.47;1.10;;;13.50;99.90;12.90;100056;;;;596865;239;24072;-80
2022/07/10 02:06:30;;;;;;;8.00;1.50;;;13.50;99.90;12.90;100050;;;;587926;241;24068;-79
2022/07/10 02:08:58;;;;;;;4.13;1.20;;;13.50;99.90;12.90;100044;;;;586995;241;24022;-79
2022/07/10 02:11:25;;;;;;;3.57;1.43;;;13.50;99.90;12.90;100044;;;;596881;239;24076;-80
2022/07/10 02:13:53;;;;;;;7.13;1.63;;;13.50;99.90;12.90;100043;;;;596782;240;24054;-78
2022/07/10 02:16:21;;;;;;;3.40;1.47;;;13.50;99.90;12.90;100036;;;;587214;241;24040;-80
2022/07/10 02:18:49;;;;;;;3.30;1.27;;;13.50;99.90;12.90;100035;;;;596512;239;24049;-80
2022/07/10 02:21:17;;;;;;;5.73;1.50;;;13.50;99.90;12.90;100032;;;;587218;241;24079;-80
2022/07/10 02:23:45;;;;;;;3.53;1.00;;;13.50;99.90;12.90;100031;;;;596622;239;24095;-79
2022/07/10 02:26:13;;;;;;;3.70;1.23;;;13.50;99.90;12.90;100026;;;;596344;240;24033;-80
2022/07/10 02:28:41;;;;;;;2.47;1.20;;;13.50;99.90;12.90;100026;;;;591392;239;34970;-81
2022/07/10 02:31:09;;;;;;;2.73;1.43;;;13.50;99.90;12.90;100015;;;;587288;241;24130;-80
2022/07/10 02:33:37;;;;;;;3.07;1.00;;;13.50;99.90;12.90;100029;;;;596428;239;24024;-80
2022/07/10 02:36:05;;;;;;;1.93;0.87;;;13.50;99.90;12.90;100023;;;;596899;239;24128;-82
2022/07/10 02:38:33;;;;;;;1.40;1.00;;;13.50;99.90;12.90;100027;;;;587698;241;24032;-82
2022/07/10 02:41:01;;;;;;;4.53;1.57;;;13.50;99.90;12.90;100034;;;;587724;241;24056;-79
2022/07/10 02:43:30;;;;;;;2.27;1.30;;;13.50;99.90;12.90;100033;;;;596974;239;24089;-81
2022/07/10 02:45:58;;;;;;;4.07;1.13;;;13.50;99.90;12.80;100040;;;;596905;239;24042;-80
2022/07/10 02:48:26;;;;;;;2.67;1.10;;;13.50;99.90;12.80;100033;;;;596860;239;24103;-82
2022/07/10 02:50:57;;;;;;;2.47;1.13;;;13.40;99.90;12.70;100025;;;;588315;240;24038;-82
2022/07/10 02:53:22;;;;;;;1.77;1.00;;;13.30;99.90;12.60;100035;;;;589141;241;24049;-80
2022/07/10 02:55:49;;;;;;;0.90;0.90;;;13.20;99.90;12.60;100028;;;;588944;241;24056;-81
2022/07/10 02:58:19;;;;;;;5.60;1.97;;;13.20;99.90;12.50;100025;;;;597432;239;24080;-80
2022/07/10 03:00:45;;;;;;;4.90;1.47;;;13.10;99.90;12.40;100026;;;;597209;240;24026;-80
2022/07/10 03:03:17;;;;;;;1.13;1.03;;;13.00;99.90;12.40;100028;;;;596956;239;24032;-81
2022/07/10 03:05:43;;;;;;;2.40;1.10;;;12.90;99.90;12.40;100016;;;;587616;241;24053;-80
2022/07/10 03:08:11;;;;;;;5.63;1.00;;;12.90;99.90;12.30;100014;;;;587733;241;24043;-81
2022/07/10 03:10:38;;;;;;;4.33;1.20;;;12.90;99.90;12.30;100015;;;;587762;241;24070;-82
2022/07/10 03:13:06;;;;;;;5.80;1.17;;;12.90;99.90;12.30;100022;;;;587866;241;24131;-79
2022/07/10 03:15:34;;;;;;;5.97;1.63;;;12.90;99.90;12.30;100024;;;;587938;241;24060;-81
2022/07/10 03:18:05;;;;;;;4.57;1.53;;;12.90;99.90;12.30;100015;;;;597423;239;24052;-81
2022/07/10 03:20:30;;;;;;;5.67;1.50;;;12.90;99.90;12.30;100017;;;;597010;240;24048;-81
2022/07/10 03:22:58;;;;;;;5.20;1.27;;;12.90;99.90;12.30;100011;;;;597431;239;24103;-81
2022/07/10 03:25:27;;;;;;;3.37;1.20;;;12.90;99.90;12.30;100007;;;;597362;239;24013;-83
2022/07/10 03:27:55;;;;;;;8.70;2.10;;;12.80;99.90;12.30;100007;;;;597459;240;24033;-82
2022/07/10 03:30:23;;;;;;;2.27;1.40;;;12.90;99.90;12.30;100009;;;;596986;239;24010;-82
2022/07/10 03:32:50;;;;;;;5.77;1.43;;;12.90;99.90;12.30;100006;;;;597360;239;24142;-82
2022/07/10 03:35:18;;;;;;;3.80;1.33;;;12.90;99.90;12.40;100007;;;;588500;241;24075;-82
2022/07/10 03:37:47;;;;;;;2.93;1.63;;;13.00;99.90;12.40;100009;;;;588023;241;24170;-81
2022/07/10 03:40:15;;;;;;;8.37;2.10;;;13.00;99.90;12.50;100004;;;;597084;239;24068;-82
2022/07/10 03:42:43;;;;;;;2.77;1.33;;;13.10;99.90;12.50;100002;;;;597117;239;24041;-81
2022/07/10 03:45:11;;;;;;;5.47;1.50;;;13.10;99.90;12.50;99998;;;;597118;239;24058;-82
2022/07/10 03:47:39;;;;;;;4.33;1.73;;;13.20;99.90;12.50;99993;;;;587905;241;24028;-82
2022/07/10 03:50:10;;;;;;;3.13;1.57;;;13.20;99.90;12.50;100003;;;;587836;241;24123;-82
2022/07/10 03:52:35;;;;;;;4.33;1.73;;;13.30;99.90;12.70;99998;;;;587449;241;24050;-81
2022/07/10 03:55:03;;;;;;;4.47;1.63;;;13.30;99.90;13.30;100004;;;;587672;241;24033;-81
2022/07/10 04:00:18;;;;;;;4.30;1.67;;;16.30;99.90;15.90;100005;;;;587190;241;24046;-80
2022/07/10 04:02:46;;;;;;;4.87;1.47;;;16.20;99.90;16.90;100006;;;;597172;239;24027;-81
2022/07/10 04:05:14;;;;;;;3.43;1.27;;;17.30;99.90;18.00;100006;;;;597643;239;24039;-81
2022/07/10 04:07:42;;;;;;;3.17;1.27;;;18.50;99.90;19.10;100001;;;;597165;239;24011;-80
2022/07/10 04:10:09;;;;;;;4.17;1.30;;;19.60;99.90;19.70;100002;;;;588036;241;24029;-80
2022/07/10 04:12:38;;;;;;;2.00;1.30;;;20.80;99.90;20.00;100000;;;;596960;239;24054;-80
2022/07/10 04:15:07;;;;;;;4.37;1.10;;;21.40;99.90;20.60;99996;;;;597096;239;23256;-80
2022/07/10 04:17:35;;;;;;;2.73;1.10;;;21.30;99.90;21.80;100001;;;;596897;239;24096;-81
2022/07/10 04:20:03;;;;;;;3.23;1.20;;;22.40;99.90;22.50;100007;;;;597060;239;24039;-81
2022/07/10 04:22:31;;;;;;;5.17;1.20;;;23.20;99.90;22.50;100006;;;;596574;240;24065;-80
2022/07/10 04:24:58;;;;;;;2.93;0.97;;;23.40;99.90;23.00;100000;;;;596610;239;24038;-82
2022/07/10 04:27:26;;;;;;;3.83;1.00;;;23.90;99.90;22.70;99999;;;;587710;241;24029;-81
2022/07/10 04:29:54;;;;;;;1.57;0.90;;;23.80;99.90;22.40;99989;;;;588102;241;24060;-80
2022/07/10 04:32:22;;;;;;;2.07;1.10;;;23.40;99.90;23.30;99995;;;;587828;241;24038;-80
2022/07/10 04:34:50;;;;;;;5.23;1.43;;;24.10;99.90;23.60;99990;;;;587793;241;24002;-80
2022/07/10 04:37:18;;;;;;;4.07;1.20;;;24.50;99.90;22.70;99992;;;;587294;241;24083;-80
2022/07/10 04:39:47;;;;;;;4.03;1.40;;;23.00;99.90;21.70;99988;;;;587214;241;24033;-80
2022/07/10 04:42:15;;;;;;;3.83;1.27;;;22.90;99.90;20.80;99991;;;;587070;241;24144;-80
2022/07/10 04:44:43;;;;;;;3.47;1.30;;;22.00;99.90;20.20;99991;;;;587244;241;24127;-80
2022/07/10 04:47:11;;;;;;;3.03;1.10;;;21.20;99.90;19.70;99987;;;;587098;241;24055;-80
2022/07/10 04:49:38;;;;;;;2.20;1.43;;;20.60;99.90;19.30;99985;;;;587297;241;24036;-79
2022/07/10 04:52:06;;;;;;;2.70;1.90;;;20.20;99.90;18.90;99984;;;;588275;241;24053;-81
2022/07/10 04:54:34;;;;;;;3.03;1.07;;;19.70;99.90;18.70;99983;;;;588181;241;23075;-81
2022/07/10 04:57:02;;;;;;;3.13;0.93;;;19.40;99.90;18.40;99977;;;;587657;240;24137;-79
2022/07/10 04:59:30;;;;;;;1.90;0.87;;;19.10;99.90;18.00;99984;;;;587190;241;24129;-79
2022/07/10 05:01:58;;;;;;;2.40;1.30;;;18.70;99.90;17.90;99989;;;;587323;241;24162;-81
2022/07/10 05:04:26;;;;;;;1.53;1.07;;;18.50;99.90;18.10;99983;;;;587145;241;24024;-80
2022/07/10 05:06:54;;;;;;;2.20;0.80;;;18.60;99.90;18.10;99986;;;;587055;241;24121;-79
2022/07/10 05:09:22;;;;;;;2.17;0.90;;;18.60;99.90;18.00;99998;;;;587168;241;24167;-79
2022/07/10 05:11:50;;;;;;;1.37;0.57;;;18.60;99.90;17.90;99997;;;;587095;241;24055;-77
2022/07/10 05:14:17;;;;;;;1.77;0.93;;;18.50;99.90;18.10;99993;;;;587894;240;24011;-80
2022/07/10 05:16:45;;;;;;;2.50;1.40;;;18.60;99.90;19.50;99997;;;;583394;241;34872;-80
2022/07/10 05:19:13;;;;;;;4.07;1.30;;;19.70;99.90;20.70;99999;;;;588221;241;24025;-79
2022/07/10 05:21:41;;;;;;;2.93;1.17;;;21.00;99.90;21.20;99995;;;;587988;241;24107;-78
2022/07/10 05:24:09;;;;;;;4.33;1.17;;;21.70;99.90;21.30;99989;;;;587764;241;24062;-78
2022/07/10 05:26:37;;;;;;;4.53;1.07;;;21.90;99.90;21.20;100000;;;;587728;241;24021;-79
2022/07/10 05:29:05;;;;;;;2.30;0.93;;;21.90;99.90;21.00;99986;;;;596887;239;24025;-78
2022/07/10 05:31:33;;;;;;;2.17;1.30;;;21.80;99.90;20.60;99995;;;;588080;241;24036;-80
2022/07/10 05:34:01;;;;;;;1.73;0.90;;;21.40;99.90;20.40;99990;;;;587788;241;24034;-79
2022/07/10 05:36:29;;;;;;;2.90;0.93;;;21.10;99.90;20.20;99989;;;;587854;241;23086;-79
2022/07/10 05:38:57;;;;;;;1.20;0.77;;;20.90;99.90;20.10;99992;;;;587510;241;24053;-80
2022/07/10 05:41:25;;;;;;;4.40;1.00;;;20.70;99.90;20.10;99998;;;;587374;241;24103;-79
2022/07/10 05:43:53;;;;;;;3.03;0.97;;;20.60;99.90;20.10;100004;;;;587510;241;23043;-80
2022/07/10 05:46:21;;;;;;;1.00;0.97;;;20.60;99.90;20.10;100010;;;;596641;239;24021;-80
2022/07/10 05:48:49;;;;;;;0.87;0.77;;;20.60;99.90;20.00;100010;;;;596910;239;24010;-83
2022/07/10 05:51:17;;;;;;;2.90;0.80;;;20.60;99.90;19.60;100008;;;;587263;241;23065;-79
2022/07/10 05:53:45;;;;;;;1.57;0.90;;;20.30;99.90;19.50;100010;;;;596375;239;24071;-79
2022/07/10 05:56:13;;;;;;;2.10;1.00;;;20.00;99.90;19.30;100001;;;;596474;236;24033;-81
2022/07/10 05:58:41;;;;;;;1.53;1.10;;;19.80;99.90;19.10;100005;;;;587201;241;24065;-81
2022/07/10 06:01:09;;;;;;;3.30;1.23;;;19.70;99.90;19.10;100010;;;;596602;239;24060;-81
2022/07/10 06:03:37;;;;;;;1.43;0.83;;;19.60;99.90;19.20;100005;;;;596380;239;24038;-82
2022/07/10 06:06:05;;;;;;;1.77;0.97;;;19.70;99.90;19.20;100012;;;;596367;239;24050;-83
2022/07/10 06:08:33;;;;;;;2.77;1.10;;;19.70;99.90;19.10;100011;;;;587326;241;24027;-78
2022/07/10 06:11:04;;;;;;;2.40;1.00;;;19.70;99.90;19.00;100023;;;;596537;239;24068;-81
2022/07/10 06:13:29;;;;;;;1.60;1.10;;;19.60;99.90;18.70;100012;;;;587720;241;24124;-84
2022/07/10 06:15:57;;;;;;;3.17;1.07;;;19.30;99.90;18.50;100024;;;;596732;239;24054;-82
2022/07/10 06:18:25;;;;;;;2.03;0.90;;;19.00;99.90;18.30;100027;;;;596735;240;24024;-83
2022/07/10 06:20:53;;;;;;;3.57;1.10;;;18.80;99.90;18.30;100024;;;;596586;239;24032;-78
2022/07/10 06:23:22;;;;;;;2.07;1.07;;;18.90;99.90;18.40;100030;;;;596268;239;24052;-79
2022/07/10 06:25:51;;;;;;;3.17;1.13;;;18.90;99.90;18.50;100027;;;;597036;239;24021;-79
2022/07/10 06:28:21;;;;;;;2.30;0.90;;;18.90;99.90;18.50;100026;;;;597658;239;24009;-79
2022/07/10 06:30:47;;;;;;;3.13;0.97;;;19.00;99.90;18.70;100022;;;;587970;241;24032;-80
2022/07/10 06:33:14;;;;;;;5.43;1.17;;;19.10;99.90;18.90;100019;;;;597179;239;24010;-80
2022/07/10 06:35:43;;;;;;;1.57;0.87;;;19.30;99.90;19.40;100025;;;;597011;239;24080;-81
2022/07/10 06:38:10;;;;;;;4.43;1.17;;;19.80;99.90;20.00;100015;;;;588149;241;24033;-82
2022/07/10 06:40:41;;;;;;;2.03;1.10;;;20.30;99.90;21.20;100022;;;;597423;239;24017;-82
2022/07/10 06:43:06;;;;;;;1.50;1.07;;;21.30;99.90;23.80;100021;;;;587986;241;24030;-82
2022/07/10 06:45:34;;;;;;;1.37;0.97;;;23.70;99.90;25.60;100021;;;;597086;239;24060;-81
2022/07/10 06:48:02;;;;;;;1.53;0.70;;;25.70;99.90;27.70;100012;;;;597052;239;24058;-82
2022/07/10 06:50:34;;;;;;;1.70;1.10;;;29.40;91.70;29.30;100012;;;;597131;239;24094;-82
2022/07/10 06:53:01;;;;;;;2.27;1.10;;;29.30;91.60;31.30;100012;;;;587797;241;24087;-81
2022/07/10 06:55:29;;;;;;;1.17;0.70;;;31.50;81.40;33.00;100021;;;;596945;236;23137;-81
2022/07/10 06:57:57;;;;;;;1.87;0.90;;;33.20;70.00;34.70;100034;;;;587344;241;24059;-81
2022/07/10 07:00:25;;;;;;;0.90;0.85;;;34.90;63.00;35.60;100034;;;;596815;239;23079;-82
2022/07/10 07:02:53;;;;;;;2.70;0.95;;;36.10;57.30;36.10;100037;;;;587191;241;23066;-82
2022/07/10 07:05:21;;;;;;;1.92;1.00;;;37.40;52.80;37.00;100028;;;;596844;239;23058;-82
2022/07/10 07:07:50;;;;;;;1.50;0.98;;;38.50;50.50;38.20;100042;;;;596494;239;23032;-80
2022/07/10 07:10:19;;;;;;;0.80;0.80;;;39.10;48.30;38.70;100043;;;;596458;239;23086;-83
2022/07/10 07:12:47;;;;;;;3.22;1.00;;;39.10;48.30;38.80;100025;;;;596516;239;23046;-82
2022/07/10 07:15:16;;;;;;;1.25;1.12;;;39.40;47.00;37.50;100036;;;;596461;239;23090;-80
2022/07/10 07:23:15;;;;;;;2.03;1.17;;;35.00;49.60;33.40;100036;;;;579494;244;23157;-78
2022/07/10 07:25:44;;;;;;;1.75;1.05;;;33.80;52.30;33.10;100039;;;;577795;244;23117;-81
2022/07/10 07:28:08;;;;;;;3.28;0.90;;;33.80;52.30;32.30;100030;;;;576429;246;23134;-80
2022/07/10 07:30:39;;;;;;;3.10;1.37;;;33.10;53.40;31.50;100027;;;;587029;241;26277;-80
2022/07/10 07:33:04;;;;;;;2.90;1.10;;;32.30;54.20;30.90;100040;;;;575994;246;23099;-80
2022/07/10 07:35:32;;;;;;;1.37;0.77;;;31.60;55.10;31.20;100027;;;;575980;246;25348;-81
2022/07/10 07:38:00;;;;;;;1.62;1.00;;;31.50;55.90;33.00;100030;;;;577276;245;23060;-79
2022/07/10 07:40:28;;;;;;;2.72;1.20;;;32.90;56.50;34.90;100040;;;;577567;245;23067;-82
2022/07/10 07:42:59;;;;;;;1.75;1.00;;;34.70;53.00;36.50;100043;;;;577294;246;23046;-82
2022/07/10 07:45:23;;;;;;;2.25;1.10;;;36.30;51.10;37.70;100042;;;;576835;246;23133;-82
2022/07/10 07:47:59;;;;;;;1.85;0.90;;;37.80;48.90;38.60;100049;;;;576950;246;23079;-84
2022/07/10 07:50:26;;;;;;;2.25;1.27;;;38.70;47.60;38.40;100048;;;;576681;246;24104;-83
2022/07/10 07:52:52;;;;;;;1.70;1.23;;;38.90;46.20;39.40;100051;;;;576949;246;23067;-83
2022/07/10 07:55:20;;;;;;;1.65;1.10;;;39.60;46.00;40.40;100053;;;;576835;245;23095;-83
2022/07/10 07:57:48;;;;;;;1.87;1.20;;;40.50;44.80;41.10;100055;;;;576285;246;23088;-80
2022/07/10 08:00:22;;;;;;;2.20;1.33;;;41.40;43.80;40.80;100047;;;;576195;246;23065;-84
2022/07/10 08:02:44;;;;;;;2.15;1.08;;;41.20;44.50;39.50;100056;;;;576749;246;23087;-80
2022/07/10 08:05:16;;;;;;;2.22;1.15;;;40.50;43.80;37.40;100054;;;;576234;246;23053;-81
2022/07/10 08:07:40;;;;;;;3.75;1.40;;;38.80;44.80;35.20;100060;;;;575864;246;23068;-80
2022/07/10 08:10:11;;;;;;;1.90;1.20;;;36.80;47.60;33.90;100061;;;;576269;246;25156;-82
2022/07/10 08:12:40;;;;;;;4.25;1.30;;;33.70;51.30;32.50;100070;;;;576102;246;23133;-79
2022/07/10 08:15:10;;;;;;;3.92;1.48;;;33.70;51.30;30.40;100076;;;;576056;246;23068;-79
2022/07/10 08:17:38;;;;;;;1.08;0.90;;;31.90;54.50;28.50;100062;;;;585261;245;23074;-79
2022/07/10 08:20:06;;;;;;;2.95;1.12;;;29.90;58.50;26.50;100083;;;;576039;246;24090;-79
2022/07/10 08:22:37;;;;;;;5.35;1.30;;;27.90;73.20;24.80;100066;;;;575981;246;23133;-79
2022/07/10 08:25:02;;;;;;;8.23;1.30;;;26.00;83.00;23.30;100074;;;;575877;246;23073;-79
2022/07/10 08:27:30;;;;;;;3.27;1.40;;;24.30;90.50;22.20;100059;;;;576010;246;24073;-80
2022/07/10 08:29:58;;;;;;;2.37;1.30;;;23.00;92.50;21.50;100053;;;;575928;246;24148;-79
2022/07/10 08:32:27;;;;;;;4.30;1.33;;;21.40;99.90;20.90;100047;;;;576002;246;24058;-79
2022/07/10 08:34:55;;;;;;;4.23;1.20;;;20.90;99.90;20.60;100050;;;;575890;246;24081;-78
2022/07/10 08:37:23;;;;;;;2.77;1.13;;;20.90;99.90;20.40;100050;;;;575930;246;24054;-79
2022/07/10 08:39:52;;;;;;;1.47;1.00;;;20.60;99.90;20.30;100046;;;;576042;246;24129;-81
2022/07/10 08:42:24;;;;;;;4.30;1.30;;;20.60;99.90;20.30;100058;;;;576381;246;23067;-79
2022/07/10 08:44:48;;;;;;;1.77;1.03;;;20.60;99.90;20.60;100050;;;;575935;246;23122;-79
2022/07/10 08:47:16;;;;;;;2.30;1.10;;;20.90;99.90;21.10;100056;;;;576367;246;24109;-81
2022/07/10 08:49:47;;;;;;;4.63;1.30;;;21.40;99.90;21.50;100057;;;;577118;245;23118;-80
2022/07/10 08:52:24;;;;;;;2.93;1.57;;;21.90;99.90;21.90;100054;;;;577498;245;24162;-80
2022/07/10 08:54:55;;;;;;;2.40;1.27;;;22.30;99.90;22.20;100062;;;;577108;241;24096;-82
2022/07/10 08:57:20;;;;;;;2.57;1.10;;;23.00;99.90;22.60;100053;;;;585869;245;24100;-80
2022/07/10 08:59:48;;;;;;;1.83;1.10;;;23.00;99.90;23.60;100051;;;;576604;246;24117;-80
2022/07/10 09:02:16;;;;;;;1.80;1.37;;;23.90;99.90;24.70;100056;;;;576492;246;24091;-80
2022/07/10 09:04:44;;;;;;;2.43;1.27;;;25.00;99.90;26.50;100050;;;;576355;246;23120;-80
2022/07/10 09:07:12;;;;;;;2.13;0.80;;;26.50;98.90;29.40;100054;;;;576398;246;24075;-81
2022/07/10 09:09:53;;;;;;;1.23;0.70;;;29.20;93.50;31.40;100056;;;;576197;246;24126;-78
2022/07/10 09:12:21;;;;;;;1.30;0.90;;;31.70;79.60;31.70;100056;;;;585687;245;23070;-80
2022/07/10 09:14:48;;;;;;;1.12;0.90;;;32.40;69.40;33.50;100047;;;;571103;246;35015;-78
2022/07/10 09:17:16;;;;;;;4.12;1.02;;;33.90;65.80;35.40;100040;;;;576502;246;23092;-81
2022/07/10 09:19:47;;;;;;;2.80;1.02;;;35.70;60.80;38.00;100054;;;;577276;246;23087;-81
2022/07/10 09:22:15;;;;;;;1.58;0.95;;;38.20;54.90;38.20;100052;;;;577304;246;23075;-82
2022/07/10 09:24:42;;;;;;;5.45;1.20;;;39.00;49.50;38.50;100047;;;;586098;244;23104;-81
2022/07/10 09:27:14;;;;;;;1.95;1.00;;;39.40;48.40;39.30;100049;;;;576225;246;23127;-83
2022/07/10 09:29:54;;;;;;;1.83;1.00;;;40.10;47.00;38.60;100043;;;;575897;246;23072;-82
2022/07/10 09:32:18;;;;;;;2.03;1.12;;;39.90;45.80;39.20;100043;;;;575611;246;23065;-80
2022/07/10 09:37:23;;;;;;;2.65;1.30;;;40.10;45.00;39.70;100057;;;;578211;246;24094;-81
2022/07/10 09:40:03;;;;;;;2.42;1.33;;;40.70;44.50;39.50;100062;;;;575811;246;23081;-81
2022/07/10 09:42:47;;;;;;;3.60;1.15;;;40.70;44.40;38.80;100058;;;;576619;246;23104;-81
2022/07/10 09:45:13;;;;;;;3.05;1.23;;;40.20;43.10;38.90;100074;;;;582938;241;23087;-83
2022/07/10 09:47:42;;;;;;;2.40;1.00;;;40.30;42.70;39.50;100069;;;;596821;239;23050;-81
2022/07/10 09:50:38;;;;;;;1.08;0.90;;;40.20;42.20;40.30;100063;;;;575811;246;24112;-82
2022/07/10 09:53:02;;;;;;;1.92;1.10;;;41.00;41.80;40.20;100064;;;;575935;246;23135;-84
2022/07/10 09:55:32;;;;;;;3.85;1.30;;;41.30;41.10;38.80;100066;;;;584846;241;24114;-85
2022/07/10 09:58:03;;;;;;;1.33;1.23;;;40.30;41.70;39.10;100065;;;;576254;246;23070;-83
2022/07/10 10:00:37;;;;;;;1.52;1.10;;;40.10;42.90;37.90;100068;;;;576778;245;23055;-83
2022/07/10 10:03:07;;;;;;;2.25;1.10;;;39.30;42.30;36.70;100075;;;;587047;244;24106;-85
2022/07/10 10:05:53;;;;;;;5.47;0.90;;;38.00;43.10;35.80;100076;;;;577795;245;23084;-82
2022/07/10 10:08:49;;;;;;;1.90;1.00;;;36.90;43.60;34.00;100077;;;;577594;245;24170;-82
2022/07/10 10:11:16;;;;;;;3.28;1.05;;;35.30;45.30;32.40;100098;;;;576921;246;24105;-83
2022/07/10 10:13:49;;;;;;;2.92;1.35;;;32.00;50.80;30.70;100109;;;;576449;246;23081;-81
2022/07/10 10:16:14;;;;;;;2.47;1.48;;;30.20;54.20;29.00;100099;;;;576683;246;24110;-82
2022/07/10 10:21:32;;;;;;;2.63;1.10;;;28.90;57.60;27.00;100109;;;;576932;246;23090;-82
2022/07/10 10:23:59;;;;;;;3.47;1.10;;;27.80;59.60;26.00;100102;;;;576979;246;24099;-81
2022/07/10 10:26:27;;;;;;;2.33;1.10;;;26.70;62.40;25.00;100101;;;;576938;246;23107;-81
2022/07/10 10:28:56;;;;;;;5.47;1.20;;;25.80;65.30;24.50;100092;;;;576835;246;23075;-83
2022/07/10 10:31:26;;;;;;;1.20;1.10;;;25.00;68.20;24.30;100096;;;;576619;246;24046;-81
2022/07/10 10:33:57;;;;;;;3.63;1.30;;;24.60;70.30;24.60;100092;;;;576796;246;24098;-82
2022/07/10 10:36:36;;;;;;;2.43;0.80;;;24.70;71.30;24.90;100095;;;;576765;246;24149;-81
2022/07/10 10:39:06;;;;;;;2.37;1.10;;;25.20;70.70;24.80;100098;;;;576512;246;24079;-82
2022/07/10 10:41:44;;;;;;;4.03;1.30;;;25.10;70.10;24.50;100095;;;;575739;246;24067;-82
2022/07/10 10:44:16;;;;;;;1.10;0.90;;;24.90;70.90;23.90;100092;;;;576854;246;24117;-81
2022/07/10 10:47:10;;;;;;;2.13;1.00;;;24.50;71.70;23.30;100091;;;;576370;246;24078;-82
2022/07/10 10:49:23;;;;;;;1.67;1.17;;;23.90;73.50;22.70;100095;;;;575828;246;25117;-82
2022/07/10 10:51:59;;;;;;;1.73;0.93;;;23.30;76.40;22.50;100093;;;;576553;246;24040;-82
2022/07/10 10:54:30;;;;;;;1.83;0.90;;;22.90;78.90;22.40;100094;;;;576516;246;24051;-79
2022/07/10 10:57:19;;;;;;;1.23;0.90;;;22.70;81.10;22.40;100090;;;;576312;245;24043;-81
2022/07/10 10:59:53;;;;;;;2.17;1.23;;;22.70;82.50;22.40;100085;;;;576192;246;24055;-79
2022/07/10 11:02:32;;;;;;;3.57;1.57;;;22.70;83.30;22.30;100081;;;;585831;244;24064;-80
2022/07/10 11:05:24;;;;;;;1.13;0.90;;;22.70;83.60;22.20;100087;;;;576757;246;24077;-80
2022/07/10 11:08:02;;;;;;;3.33;1.40;;;22.60;84.30;22.10;100086;;;;575758;246;24062;-79
2022/07/10 11:10:39;;;;;;;7.47;1.50;;;22.50;85.60;21.90;100086;;;;576803;246;24061;-80
2022/07/10 11:13:13;;;;;;;1.13;1.00;;;22.40;87.20;21.90;100089;;;;577322;245;23079;-79
2022/07/10 11:15:43;;;;;;;2.93;0.80;;;22.30;85.40;21.90;100083;;;;577538;245;24137;-79
2022/07/10 11:18:18;;;;;;;4.43;1.30;;;22.30;84.80;22.00;100092;;;;585995;244;24066;-79
2022/07/10 11:20:51;;;;;;;0.77;0.67;;;22.30;85.60;22.20;100094;;;;577329;246;24111;-79
2022/07/10 11:24:01;;;;;;;2.87;1.20;;;22.50;83.80;22.40;100087;;;;576849;246;23104;-81
2022/07/10 11:26:53;;;;;;;2.60;1.00;;;22.70;80.80;22.60;100089;;;;576739;245;24045;-80
2022/07/10 11:29:21;;;;;;;0.70;0.60;;;22.90;79.40;22.60;100098;;;;575264;246;24062;-82
2022/07/10 11:31:53;;;;;;;3.60;0.80;;;22.90;75.20;22.40;100108;;;;576689;246;24095;-81
2022/07/10 11:34:23;;;;;;;2.67;0.83;;;22.90;75.10;22.20;100108;;;;576540;246;24095;-80